Time;durP1;ratioP1;P1;durP2;ratioP2;P2;SDS_P1;SDS_P2;PMS_P1;PMS_P2;Temp;Humidity;BMP_temperature;BMP_pressure;BME280_temperature;BME280_humidity;BME280_pressure;Samples;Min_cycle;Max_cycle;Signal;HPM_P1;HPM_P2
2022/10/10 00:01:30;;;;;;;13.52;5.78;;;;;;;12.69;66.24;99204.03;5176719;28;20539;-74
2022/10/10 00:04:21;;;;;;;;;;;;;;;12.66;66.41;99205.16;5167608;28;20119;-73
2022/10/10 00:07:11;;;;;;;13.75;5.95;;;;;;;12.56;65.49;99158.34;5162212;28;19928;-74
2022/10/10 00:10:02;;;;;;;17.88;6.40;;;;;;;12.83;65.71;99207.97;5176026;28;20563;-73
2022/10/10 00:12:52;;;;;;;17.35;6.25;;;;;;;12.79;65.76;99191.47;5166900;28;20057;-73
2022/10/10 00:15:43;;;;;;;10.98;6.80;;;;;;;12.85;66.10;99200.69;5163840;28;20068;-73
2022/10/10 00:18:39;;;;;;;11.52;6.40;;;;;;;12.73;66.46;99212.53;5169475;28;20519;-72
2022/10/10 00:21:29;;;;;;;12.77;6.30;;;;;;;12.61;66.42;99191.47;5180534;28;20444;-72
2022/10/10 00:24:19;;;;;;;18.52;6.43;;;;;;;12.85;66.08;99219.31;5169090;28;20050;-72
2022/10/10 00:27:10;;;;;;;12.57;6.65;;;;;;;12.82;65.72;99190.34;5171499;28;20085;-71
2022/10/10 00:30:01;;;;;;;14.25;6.35;;;;;;;12.85;66.55;99204.19;5175885;28;20111;-72
2022/10/10 00:32:51;;;;;;;13.10;6.75;;;;;;;12.92;65.78;99207.06;5181100;28;20046;-72
2022/10/10 00:35:42;;;;;;;12.32;6.43;;;;;;;12.74;66.26;99169.81;5172634;28;20520;-72
2022/10/10 00:38:33;;;;;;;10.15;6.15;;;;;;;12.83;66.41;99190.19;5170415;28;20424;-71
2022/10/10 00:41:25;;;;;;;12.75;6.20;;;;;;;12.93;65.83;99161.66;5182161;28;20168;-73
2022/10/10 00:44:16;;;;;;;12.90;7.20;;;;;;;13.11;65.98;99193.56;5183818;28;20085;-73
2022/10/10 00:47:07;;;;;;;14.50;6.90;;;;;;;13.11;66.69;99192.72;5184622;28;20099;-73
2022/10/10 00:49:57;;;;;;;12.40;6.93;;;;;;;13.04;66.60;99181.03;5162377;28;20332;-72
2022/10/10 00:52:48;;;;;;;11.73;7.53;;;;;;;13.00;66.94;99191.13;5173266;28;20065;-72
2022/10/10 00:55:39;;;;;;;12.88;6.60;;;;;;;13.07;66.41;99189.53;5171917;28;20057;-73
2022/10/10 00:58:31;;;;;;;11.85;6.65;;;;;;;13.15;66.29;99180.78;5150159;28;20045;-71
2022/10/10 01:01:22;;;;;;;15.60;7.00;;;;;;;13.19;66.03;99190.13;5179768;28;20603;-71
2022/10/10 01:04:28;;;;;;;12.85;7.13;;;;;;;13.19;66.42;99176.81;5162895;28;20057;-72
2022/10/10 01:07:23;;;;;;;14.20;6.88;;;;;;;13.23;66.19;99186.16;5182812;28;20054;-72
2022/10/10 01:10:16;;;;;;;10.52;6.22;;;;;;;13.19;66.36;99171.50;5170550;28;20132;-72
2022/10/10 01:13:22;;;;;;;15.75;7.03;;;;;;;13.11;66.29;99153.66;5183966;28;20539;-72
2022/10/10 01:16:36;;;;;;;8.88;6.15;;;;;;;13.26;65.81;99175.22;5176753;28;20072;-72
2022/10/10 01:19:47;;;;;;;11.82;6.63;;;;;;;13.39;65.79;99177.47;5184744;28;20095;-72
2022/10/10 01:23:11;;;;;;;12.82;6.40;;;;;;;13.32;66.30;99174.59;5172095;28;20105;-72
2022/10/10 01:26:20;;;;;;;10.65;6.05;;;;;;;13.39;65.83;99172.16;5175677;28;20112;-72
2022/10/10 01:29:27;;;;;;;13.98;6.80;;;;;;;13.42;65.70;99179.00;5176872;28;20060;-71
2022/10/10 01:32:51;;;;;;;10.23;6.57;;;;;;;13.30;66.13;99168.59;5170021;28;20069;-73
2022/10/10 01:35:51;;;;;;;8.23;5.93;;;;;;;13.24;66.06;99177.19;5165270;28;20057;-72
2022/10/10 01:38:56;;;;;;;9.65;5.80;;;;;;;13.19;66.28;99165.34;5183760;28;20096;-71
2022/10/10 01:41:57;;;;;;;11.32;6.35;;;;;;;13.17;66.43;99165.47;5171730;28;20061;-71
2022/10/10 01:44:47;;;;;;;10.65;5.47;;;;;;;13.10;66.08;99165.25;5184383;28;20053;-71
2022/10/10 01:47:38;;;;;;;9.25;5.63;;;;;;;13.08;66.18;99161.94;5183175;28;20519;-72
2022/10/10 01:50:31;;;;;;;10.82;6.32;;;;;;;13.14;66.39;99169.31;5170699;28;20057;-72
2022/10/10 01:54:04;;;;;;;10.90;6.13;;;;;;;13.16;66.59;99163.81;5168896;28;20042;-71
2022/10/10 01:57:13;;;;;;;9.88;6.07;;;;;;;13.17;66.12;99166.31;5146072;28;20315;-72
2022/10/10 02:00:16;;;;;;;17.15;6.32;;;;;;;12.91;66.64;99160.13;5183835;28;20054;-72
2022/10/10 02:03:14;;;;;;;16.10;6.78;;;;;;;13.01;66.68;99165.34;5173335;28;20176;-72
2022/10/10 02:06:11;;;;;;;12.65;6.85;;;;;;;13.05;66.64;99156.94;5177399;28;20077;-73
2022/10/10 02:09:06;;;;;;;13.98;6.82;;;;;;;13.01;67.20;99158.19;5174414;28;20069;-72
2022/10/10 02:11:58;;;;;;;9.20;6.60;;;;;;;12.90;67.18;99147.81;5183386;28;20274;-72
2022/10/10 02:14:53;;;;;;;10.40;6.30;;;;;;;12.88;66.97;99155.09;5183528;28;20131;-72
2022/10/10 02:17:45;;;;;;;16.52;6.38;;;;;;;12.85;66.76;99161.59;5168165;28;20053;-73
2022/10/10 02:20:35;;;;;;;12.27;5.95;;;;;;;12.83;66.51;99158.25;5153092;28;20068;-73
2022/10/10 02:23:26;;;;;;;11.60;6.32;;;;;;;12.89;67.51;99156.81;5179048;28;20115;-72
2022/10/10 02:26:18;;;;;;;12.07;6.53;;;;;;;12.86;67.30;99151.78;5176598;28;20524;-71
2022/10/10 02:29:12;;;;;;;11.65;6.70;;;;;;;12.79;67.38;99156.06;5183533;28;20053;-72
2022/10/10 02:32:28;;;;;;;12.32;6.47;;;;;;;12.84;66.92;99161.72;5160375;28;20192;-72
2022/10/10 02:35:23;;;;;;;9.07;6.38;;;;;;;12.82;67.58;99161.06;5166004;28;20054;-72
2022/10/10 02:38:14;;;;;;;11.55;6.50;;;;;;;12.98;67.27;99160.34;5166121;28;20519;-72
2022/10/10 02:41:07;;;;;;;13.18;6.57;;;;;;;12.92;67.16;99152.00;5162498;28;20208;-72
2022/10/10 02:43:58;;;;;;;13.13;6.37;;;;;;;13.02;67.17;99145.75;5183327;28;20084;-72
2022/10/10 02:46:48;;;;;;;11.15;6.68;;;;;;;12.88;67.70;99144.47;5178152;28;20284;-73
2022/10/10 02:49:39;;;;;;;18.38;6.93;;;;;;;12.93;67.33;99153.66;5174665;28;20058;-72
2022/10/10 02:52:29;;;;;;;9.38;6.07;;;;;;;12.89;67.54;99143.50;5142135;28;20432;-72
2022/10/10 02:55:20;;;;;;;9.77;6.20;;;;;;;12.85;67.14;99150.13;5172578;28;20400;-72
2022/10/10 02:58:10;;;;;;;39.90;16.15;;;;;;;12.98;67.39;99152.34;5151637;28;20054;-72
2022/10/10 03:01:00;;;;;;;13.65;7.25;;;;;;;13.06;67.07;99152.44;5164957;28;20053;-72
2022/10/10 03:03:50;;;;;;;15.88;7.35;;;;;;;13.08;67.25;99155.78;5182398;28;20060;-72
2022/10/10 03:06:41;;;;;;;12.77;7.40;;;;;;;13.16;67.24;99151.34;5170007;28;20102;-72
2022/10/10 03:09:32;;;;;;;13.93;7.10;;;;;;;12.92;66.62;99127.22;5181411;28;20168;-72
2022/10/10 03:12:22;;;;;;;13.45;6.78;;;;;;;13.06;67.06;99153.25;5167547;28;20507;-72
2022/10/10 03:15:12;;;;;;;11.63;7.57;;;;;;;13.00;67.22;99161.03;5180882;28;20057;-71
2022/10/10 03:18:02;;;;;;;14.50;7.15;;;;;;;12.86;67.34;99131.31;5157435;28;20049;-72
2022/10/10 03:20:55;;;;;;;12.43;6.93;;;;;;;12.86;66.87;99157.94;5181496;28;20050;-72
2022/10/10 03:23:45;;;;;;;12.00;7.63;;;;;;;12.71;67.57;99156.81;5158603;28;20513;-72
2022/10/10 03:26:35;;;;;;;11.15;6.72;;;;;;;12.70;67.21;99158.63;5175160;28;20427;-72
2022/10/10 03:29:25;;;;;;;12.52;6.78;;;;;;;12.62;67.08;99152.44;5166924;28;20415;-72
2022/10/10 03:32:15;;;;;;;12.60;6.80;;;;;;;12.62;66.90;99165.72;5172753;28;20042;-72
2022/10/10 03:35:06;;;;;;;13.48;6.68;;;;;;;12.57;66.77;99160.84;5182147;28;20054;-72
2022/10/10 03:37:57;;;;;;;15.00;7.13;;;;;;;12.58;67.21;99159.00;5161224;28;20570;-72
2022/10/10 03:40:48;;;;;;;16.13;7.35;;;;;;;12.61;67.84;99162.19;5182263;28;20072;-72
2022/10/10 03:43:38;;;;;;;15.60;7.70;;;;;;;12.53;67.34;99156.81;5163783;28;20570;-71
2022/10/10 03:46:28;;;;;;;12.05;7.20;;;;;;;12.64;68.12;99159.25;5179963;28;20061;-72
2022/10/10 03:49:18;;;;;;;13.00;7.05;;;;;;;12.46;67.84;99155.75;5182693;28;20427;-72
2022/10/10 03:52:07;;;;;;;9.10;6.28;;;;;;;12.32;66.84;99158.97;5168279;28;20476;-72
2022/10/10 03:54:57;;;;;;;11.65;7.15;;;;;;;12.25;67.71;99144.56;5180956;28;20057;-71
2022/10/10 03:57:48;;;;;;;12.35;7.05;;;;;;;12.35;67.95;99148.84;5168942;28;20069;-72
2022/10/10 04:00:38;;;;;;;13.23;8.05;;;;;;;12.26;68.15;99138.28;5178435;28;20530;-71
2022/10/10 04:03:29;;;;;;;13.05;7.18;;;;;;;12.50;68.11;99145.66;5179081;28;20063;-72
2022/10/10 04:06:19;;;;;;;16.05;7.55;;;;;;;12.38;68.03;99147.69;5181395;28;20192;-70
2022/10/10 04:09:09;;;;;;;10.73;6.80;;;;;;;12.06;68.27;99135.75;5177308;28;20096;-73
2022/10/10 04:11:59;;;;;;;11.45;7.22;;;;;;;12.11;67.75;99145.94;5174698;28;20100;-71
2022/10/10 04:14:49;;;;;;;10.20;6.65;;;;;;;12.05;68.19;99165.97;5166632;28;20192;-72
2022/10/10 04:17:39;;;;;;;10.55;6.68;;;;;;;11.98;67.68;99157.75;5181202;28;20085;-72
2022/10/10 04:20:29;;;;;;;14.75;6.70;;;;;;;11.94;67.25;99153.72;5181912;28;20131;-72
2022/10/10 04:23:19;;;;;;;12.93;6.40;;;;;;;11.89;67.77;99150.69;5177943;28;20046;-72
2022/10/10 04:26:09;;;;;;;11.88;6.80;;;;;;;11.88;67.73;99159.63;5177625;28;20049;-72
2022/10/10 04:28:59;;;;;;;12.15;7.25;;;;;;;11.97;68.56;99156.09;5169990;28;20070;-72
2022/10/10 04:31:50;;;;;;;12.07;7.15;;;;;;;11.86;68.10;99158.13;5160859;28;20073;-72
2022/10/10 04:34:40;;;;;;;10.20;6.43;;;;;;;11.74;67.93;99149.47;5152918;28;20061;-72
2022/10/10 04:37:30;;;;;;;11.40;6.25;;;;;;;11.74;69.09;99160.09;5158582;28;20547;-72
2022/10/10 04:40:20;;;;;;;15.82;7.40;;;;;;;11.85;69.03;99149.28;5180438;28;20528;-73
2022/10/10 04:43:16;;;;;;;17.50;8.23;;;;;;;11.65;68.51;99151.16;5172857;28;20543;-72
2022/10/10 04:46:06;;;;;;;15.00;7.38;;;;;;;11.68;69.09;99160.69;5181181;28;20431;-72
2022/10/10 04:48:57;;;;;;;12.18;6.93;;;;;;;11.77;69.10;99149.16;5181389;28;20129;-71
2022/10/10 04:51:47;;;;;;;13.30;7.15;;;;;;;11.62;67.95;99145.31;5173606;28;20114;-70
2022/10/10 04:54:37;;;;;;;15.60;7.15;;;;;;;11.57;68.57;99151.09;5171809;28;20287;-71
2022/10/10 04:57:27;;;;;;;15.52;7.10;;;;;;;11.62;68.58;99142.66;5181833;28;20046;-71
2022/10/10 05:00:17;;;;;;;12.10;7.20;;;;;;;11.58;68.29;99144.78;5162106;28;20057;-72
2022/10/10 05:03:10;;;;;;;13.38;7.10;;;;;;;11.61;68.61;99149.81;5159153;28;20459;-72
2022/10/10 05:06:00;;;;;;;13.43;7.70;;;;;;;11.33;68.79;99148.94;5159512;28;20519;-70
2022/10/10 05:08:50;;;;;;;16.58;8.60;;;;;;;11.41;68.75;99158.81;5181180;28;20500;-71
2022/10/10 05:11:40;;;;;;;16.25;8.75;;;;;;;11.46;68.45;99145.97;5164093;28;20116;-72
2022/10/10 05:14:31;;;;;;;22.10;11.38;;;;;;;11.51;69.05;99154.31;5171553;28;20155;-71
2022/10/10 05:17:20;;;;;;;24.23;11.15;;;;;;;11.48;68.87;99159.91;5172058;28;20058;-72
2022/10/10 05:20:12;;;;;;;21.25;13.55;;;;;;;11.51;68.82;99151.66;5171228;28;20049;-72
2022/10/10 05:23:04;;;;;;;16.58;9.73;;;;;;;11.40;69.45;99147.38;5162470;28;20189;-73
2022/10/10 05:25:55;;;;;;;26.55;11.25;;;;;;;11.46;68.81;99140.66;5158109;28;20534;-72
2022/10/10 05:28:45;;;;;;;17.63;9.93;;;;;;;11.20;68.98;99136.00;5183749;28;20057;-72
2022/10/10 05:31:36;;;;;;;12.50;7.80;;;;;;;11.24;68.93;99116.13;5184133;28;20323;-72
2022/10/10 05:34:26;;;;;;;17.83;8.50;;;;;;;11.37;69.11;99150.31;5177494;23;20096;-72
2022/10/10 05:37:17;;;;;;;15.65;9.30;;;;;;;11.36;68.80;99140.69;5183641;28;20193;-71
2022/10/10 05:40:07;;;;;;;27.23;8.52;;;;;;;11.28;69.07;99152.00;5184711;28;20046;-71
2022/10/10 05:42:57;;;;;;;14.75;9.15;;;;;;;11.37;69.17;99152.16;5179660;28;20762;-73
2022/10/10 05:45:47;;;;;;;15.68;9.90;;;;;;;11.26;68.86;99164.63;5183254;28;20147;-71
2022/10/10 05:48:37;;;;;;;23.33;10.23;;;;;;;11.14;68.23;99163.09;5180240;28;20061;-72
2022/10/10 05:51:27;;;;;;;15.10;8.50;;;;;;;11.14;68.70;99170.22;5196535;28;20056;-71
2022/10/10 05:54:17;;;;;;;21.75;9.27;;;;;;;11.12;69.81;99175.66;5170938;28;20038;-71
2022/10/10 05:57:07;;;;;;;15.43;8.80;;;;;;;11.27;69.23;99176.06;5182807;28;20123;-72
2022/10/10 06:00:03;;;;;;;18.25;8.85;;;;;;;11.15;69.83;99164.75;5188455;28;20053;-72
2022/10/10 06:02:53;;;;;;;17.45;8.38;;;;;;;11.31;69.83;99180.09;5188028;28;20053;-71
2022/10/10 06:05:48;;;;;;;20.77;9.00;;;;;;;11.40;70.07;99183.72;5185974;28;20103;-71
2022/10/10 06:08:38;;;;;;;;;;;;;;;11.31;69.31;99188.06;5189455;28;20475;-72
2022/10/10 06:11:28;;;;;;;13.30;8.32;;;;;;;11.37;70.17;99189.31;5188121;28;19944;-73
2022/10/10 06:14:18;;;;;;;22.92;9.63;;;;;;;11.58;69.92;99186.44;5200638;28;20511;-71
2022/10/10 06:17:08;;;;;;;19.50;10.55;;;;;;;11.58;69.66;99191.75;5185014;28;20530;-72
2022/10/10 06:19:59;;;;;;;20.92;11.93;;;;;;;11.55;69.49;99189.38;5169848;28;20554;-72
2022/10/10 06:22:49;;;;;;;17.33;10.43;;;;;;;11.53;69.97;99185.06;5181550;28;20045;-72
2022/10/10 06:25:39;;;;;;;16.83;10.20;;;;;;;11.73;70.68;99190.31;5181083;28;20180;-73
2022/10/10 06:28:31;;;;;;;19.77;9.45;;;;;;;11.82;69.89;99193.88;5181564;28;20056;-71
2022/10/10 06:31:22;;;;;;;35.53;10.73;;;;;;;12.03;69.86;99167.94;5167758;28;20060;-73
2022/10/10 06:34:12;;;;;;;24.08;11.70;;;;;;;12.10;70.09;99171.69;5181969;28;20044;-71
2022/10/10 06:37:02;;;;;;;25.48;10.88;;;;;;;12.29;70.16;99199.13;5182474;28;20421;-72
2022/10/10 06:39:52;;;;;;;30.33;12.32;;;;;;;12.36;70.26;99195.72;5178363;28;20519;-70
2022/10/10 06:42:42;;;;;;;25.52;11.13;;;;;;;12.39;70.18;99194.59;5183122;28;20069;-71
2022/10/10 06:45:41;;;;;;;27.17;11.70;;;;;;;12.59;69.72;99201.44;5182834;28;20057;-71
2022/10/10 06:48:34;;;;;;;24.60;11.18;;;;;;;12.94;70.49;99202.41;5170558;28;20530;-70
2022/10/10 06:51:24;;;;;;;29.48;15.13;;;;;;;13.15;68.96;99191.44;5179705;28;20057;-70
2022/10/10 06:54:15;;;;;;;22.73;11.85;;;;;;;13.19;69.36;99195.44;5175721;28;20052;-71
2022/10/10 06:57:05;;;;;;;20.70;11.93;;;;;;;13.30;69.61;99200.53;5203438;28;20131;-70
2022/10/10 06:59:55;;;;;;;20.40;11.95;;;;;;;13.57;69.08;99210.19;5170519;28;20177;-70
2022/10/10 07:02:45;;;;;;;23.75;13.40;;;;;;;13.85;68.17;99215.34;5182152;28;20054;-70
2022/10/10 07:05:35;;;;;;;18.55;11.02;;;;;;;13.97;68.52;99216.75;5166464;28;20416;-72
2022/10/10 07:08:26;;;;;;;17.27;10.63;;;;;;;14.23;67.52;99221.16;5192969;28;20346;-73
2022/10/10 07:11:16;;;;;;;17.27;10.43;;;;;;;14.55;67.36;99223.97;5170841;28;20480;-72
2022/10/10 07:14:06;;;;;;;20.55;10.98;;;;;;;14.70;66.38;99216.16;5158025;28;20058;-71
2022/10/10 07:16:56;;;;;;;18.50;10.05;;;;;;;14.76;66.35;99211.97;5191567;28;20059;-71
2022/10/10 07:19:46;;;;;;;17.52;10.23;;;;;;;14.77;66.09;99208.34;5202970;28;20060;-71
2022/10/10 07:22:36;;;;;;;24.73;12.60;;;;;;;14.99;64.43;99223.66;5201204;28;20157;-71
2022/10/10 07:25:27;;;;;;;17.85;9.55;;;;;;;15.46;64.15;99206.09;5190676;28;20111;-72
2022/10/10 07:28:17;;;;;;;21.88;10.02;;;;;;;16.15;62.26;99219.78;5181798;28;20061;-71
2022/10/10 07:31:09;;;;;;;18.98;8.38;;;;;;;16.09;61.22;99225.84;5185496;28;20051;-71
2022/10/10 07:33:59;;;;;;;20.27;9.02;;;;;;;16.07;62.46;99223.34;5165832;28;20522;-71
2022/10/10 07:36:50;;;;;;;20.83;9.07;;;;;;;16.59;60.36;99232.63;5165288;28;20076;-71
2022/10/10 07:39:40;;;;;;;14.55;7.53;;;;;;;16.36;61.19;99238.78;5197407;28;20525;-70
2022/10/10 07:42:30;;;;;;;16.50;8.63;;;;;;;16.62;61.10;99216.19;5172371;28;20503;-70
2022/10/10 07:45:21;;;;;;;16.17;8.07;;;;;;;16.70;59.41;99242.94;5189118;28;20496;-71
2022/10/10 07:48:11;;;;;;;14.50;7.35;;;;;;;16.20;60.86;99228.97;5179955;28;20092;-71
2022/10/10 07:51:05;;;;;;;13.73;7.65;;;;;;;16.25;61.76;99236.47;5195006;28;20442;-71
2022/10/10 07:53:55;;;;;;;16.98;7.72;;;;;;;16.11;61.59;99239.88;5184571;28;20164;-71
2022/10/10 07:56:45;;;;;;;17.08;8.38;;;;;;;16.74;61.28;99235.38;5180038;28;20073;-71
2022/10/10 07:59:35;;;;;;;17.88;7.20;;;;;;;16.80;60.69;99235.53;5189791;28;20053;-71
2022/10/10 08:02:25;;;;;;;16.80;7.25;;;;;;;16.37;60.94;99243.09;5199580;28;20430;-71
2022/10/10 08:05:15;;;;;;;13.50;7.22;;;;;;;16.55;61.55;99248.19;5183682;28;20252;-71
2022/10/10 08:08:05;;;;;;;17.77;8.05;;;;;;;18.74;57.96;99243.59;5196958;28;20107;-71
2022/10/10 08:10:56;;;;;;;12.98;7.78;;;;;;;19.77;54.06;99229.78;5179905;28;20427;-72
2022/10/10 08:13:48;;;;;;;26.25;7.28;;;;;;;19.70;54.51;99240.50;5180127;28;20273;-70
2022/10/10 08:16:38;;;;;;;11.05;6.30;;;;;;;18.51;55.95;99206.13;5169823;28;20543;-70
2022/10/10 08:19:28;;;;;;;14.82;6.85;;;;;;;18.63;54.82;99240.50;5193034;28;20049;-70
2022/10/10 08:22:18;;;;;;;10.88;6.25;;;;;;;18.99;55.19;99240.50;5182489;28;20057;-71
2022/10/10 08:25:08;;;;;;;15.20;6.57;;;;;;;18.53;56.39;99246.19;5184956;28;20522;-72
2022/10/10 08:27:58;;;;;;;16.85;6.40;;;;;;;18.37;56.63;99241.88;5183192;28;20057;-70
2022/10/10 08:30:48;;;;;;;11.10;6.20;;;;;;;18.35;57.19;99240.41;5164742;28;20061;-70
2022/10/10 08:33:41;;;;;;;9.98;6.05;;;;;;;19.02;56.04;99246.34;5177181;28;20139;-70
2022/10/10 08:36:31;;;;;;;14.23;5.85;;;;;;;19.42;54.53;99243.16;5175665;28;20492;-71
2022/10/10 08:39:21;;;;;;;11.10;5.93;;;;;;;20.29;51.79;99236.47;5151171;28;20132;-71
2022/10/10 08:42:30;;;;;;;17.17;5.80;;;;;;;19.33;55.36;99247.00;5196508;28;20475;-70
2022/10/10 08:45:25;;;;;;;13.55;5.68;;;;;;;19.55;55.72;99245.13;5166455;28;20048;-69
2022/10/10 08:48:23;;;;;;;10.98;5.70;;;;;;;20.49;51.78;99239.25;5189314;28;20057;-69
2022/10/10 08:51:23;;;;;;;10.35;5.80;;;;;;;20.52;51.64;99239.69;5169242;28;20060;-70
2022/10/10 08:54:16;;;;;;;12.88;5.85;;;;;;;22.04;49.82;99246.22;5201629;28;20064;-69
2022/10/10 08:57:25;;;;;;;15.63;5.43;;;;;;;21.56;49.81;99239.25;5167372;28;20187;-70
2022/10/10 09:00:19;;;;;;;9.63;5.65;;;;;;;21.85;51.18;99234.44;5182060;28;20428;-70
2022/10/10 09:03:25;;;;;;;11.75;5.20;;;;;;;22.49;48.46;99220.13;5200666;28;20057;-70
2022/10/10 09:06:21;;;;;;;10.40;5.32;;;;;;;22.30;48.00;99245.34;5185818;28;20061;-70
2022/10/10 09:09:35;;;;;;;14.35;5.70;;;;;;;22.16;48.84;99241.03;5185230;28;20471;-70
2022/10/10 09:12:33;;;;;;;;;;;;;;;21.50;50.35;99240.09;5198398;28;20060;-70
2022/10/10 09:15:36;;;;;;;8.07;4.80;;;;;;;21.18;51.10;99230.91;5168577;28;19929;-70
2022/10/10 09:18:53;;;;;;;9.82;5.07;;;;;;;21.68;49.34;99235.91;5196055;28;20056;-71
2022/10/10 09:21:44;;;;;;;11.77;5.43;;;;;;;22.36;48.15;99231.00;5183792;28;20644;-71
2022/10/10 09:24:46;;;;;;;8.75;5.18;;;;;;;21.76;51.01;99233.84;5198180;28;20132;-70
2022/10/10 09:27:43;;;;;;;9.73;5.15;;;;;;;21.97;50.42;99240.84;5194678;28;20163;-71
2022/10/10 09:30:39;;;;;;;10.73;4.60;;;;;;;21.73;51.11;99233.44;5195432;28;20049;-71
2022/10/10 09:33:54;;;;;;;7.50;4.68;;;;;;;21.09;51.62;99245.63;5183785;28;20053;-71
2022/10/10 09:36:46;;;;;;;7.25;4.57;;;;;;;21.16;50.67;99243.81;5167376;28;20194;-71
2022/10/10 09:39:49;;;;;;;7.75;4.47;;;;;;;21.50;49.87;99229.31;5182910;28;20419;-71
2022/10/10 09:42:42;;;;;;;11.23;5.30;;;;;;;22.62;50.17;99235.44;5171609;28;20123;-71
2022/10/10 09:45:37;;;;;;;8.50;4.53;;;;;;;23.05;48.67;99244.78;5155399;28;20058;-71
2022/10/10 09:48:31;;;;;;;8.40;5.03;;;;;;;23.47;46.54;99242.38;5197942;28;20191;-71
2022/10/10 09:51:22;;;;;;;7.70;4.15;;;;;;;22.81;48.44;99241.75;5192709;28;20049;-71
2022/10/10 09:54:18;;;;;;;7.32;4.55;;;;;;;23.01;49.72;99254.38;5178244;28;20131;-70
2022/10/10 09:57:14;;;;;;;10.50;4.47;;;;;;;23.85;47.63;99245.78;5188022;28;20049;-70
2022/10/10 10:00:17;;;;;;;9.00;4.03;;;;;;;23.04;48.63;99256.63;5202755;28;20132;-71
2022/10/10 10:03:20;;;;;;;6.03;4.07;;;;;;;23.33;47.37;99258.72;5198441;28;20049;-71
2022/10/10 10:06:13;;;;;;;9.83;4.20;;;;;;;23.07;47.16;99245.38;5167539;28;20065;-71
2022/10/10 10:09:05;;;;;;;7.10;4.30;;;;;;;22.45;49.13;99229.72;5182221;28;20296;-71
2022/10/10 10:11:56;;;;;;;10.18;3.90;;;;;;;22.05;49.50;99234.38;5167508;28;20061;-70
2022/10/10 10:14:47;;;;;;;9.30;4.20;;;;;;;22.13;49.67;99230.63;5180552;28;20060;-71
2022/10/10 10:17:38;;;;;;;8.13;4.38;;;;;;;22.25;52.06;99231.63;5191306;28;20049;-71
2022/10/10 10:20:28;;;;;;;9.57;4.45;;;;;;;22.08;50.83;99249.31;5189194;28;20208;-71
2022/10/10 10:23:21;;;;;;;12.57;4.30;;;;;;;21.90;50.76;99248.13;5181064;28;20526;-71
2022/10/10 10:26:42;;;;;;;9.73;4.43;;;;;;;21.94;51.43;99246.66;5167811;28;20096;-71
2022/10/10 10:29:33;;;;;;;11.35;4.43;;;;;;;22.49;49.96;99247.13;5195839;28;20187;-71
2022/10/10 10:32:51;;;;;;;9.40;4.50;;;;;;;23.04;51.86;99233.13;5200928;28;20102;-71
2022/10/10 10:36:01;;;;;;;8.07;3.97;;;;;;;23.19;51.64;99240.94;5188351;28;20064;-71
2022/10/10 10:39:04;;;;;;;16.67;5.90;;;;;;;23.29;49.32;99237.75;5192210;28;20058;-71
2022/10/10 10:42:00;;;;;;;8.63;3.83;;;;;;;22.73;50.22;99234.75;5181106;28;20101;-71
2022/10/10 10:45:00;;;;;;;9.75;4.35;;;;;;;22.38;51.15;99238.88;5181840;28;20049;-71
2022/10/10 10:47:59;;;;;;;10.25;4.07;;;;;;;22.32;51.24;99240.56;5194484;28;20060;-71
2022/10/10 10:50:59;;;;;;;15.55;4.10;;;;;;;22.50;49.45;99243.38;5189189;28;20060;-71
2022/10/10 10:54:23;;;;;;;9.00;3.85;;;;;;;22.13;52.45;99250.34;5190873;28;20080;-71
2022/10/10 10:57:20;;;;;;;6.45;4.28;;;;;;;22.05;52.57;99240.63;5177578;28;20068;-71
2022/10/10 11:00:32;;;;;;;11.50;4.18;;;;;;;22.08;52.22;99254.72;5174081;28;20317;-70
2022/10/10 11:03:50;;;;;;;11.05;3.85;;;;;;;22.18;54.44;99234.34;5188363;28;20060;-70
2022/10/10 11:07:55;;;;;;;9.63;4.28;;;;;;;22.66;51.79;99235.84;5197519;28;20049;-70
2022/10/10 11:11:00;;;;;;;13.57;4.82;;;;;;;23.00;49.61;99241.91;5172723;28;20060;-70
2022/10/10 11:14:03;;;;;;;9.93;4.55;;;;;;;22.91;48.99;99241.28;5189021;28;20413;-71
2022/10/10 11:17:11;;;;;;;11.43;5.15;;;;;;;22.74;50.02;99228.28;5167100;28;20054;-70
2022/10/10 11:20:08;;;;;;;9.10;4.40;;;;;;;22.49;50.99;99230.09;5161310;28;20511;-70
2022/10/10 11:23:11;;;;;;;7.38;4.40;;;;;;;22.65;50.50;99218.78;5162665;28;20048;-70
2022/10/10 11:26:27;;;;;;;6.90;3.93;;;;;;;22.69;51.65;99224.59;5178465;28;20552;-70
2022/10/10 11:29:21;;;;;;;7.68;4.15;;;;;;;22.65;51.61;99220.63;5176337;28;20041;-71
2022/10/10 11:32:18;;;;;;;9.75;3.97;;;;;;;22.69;51.34;99219.19;5184996;28;20057;-70
2022/10/10 11:35:17;;;;;;;12.52;3.80;;;;;;;22.92;50.49;99227.56;5180621;28;20108;-71
2022/10/10 11:38:16;;;;;;;7.30;3.83;;;;;;;22.69;50.92;99220.00;5178129;28;20188;-72
2022/10/10 11:41:21;;;;;;;7.75;3.63;;;;;;;22.94;49.34;99220.06;5182427;28;20444;-70
2022/10/10 11:44:23;;;;;;;10.18;3.92;;;;;;;22.63;50.18;99209.25;5181740;28;20050;-71
2022/10/10 11:47:22;;;;;;;9.07;3.30;;;;;;;22.99;50.79;99216.72;5188402;28;20097;-72
2022/10/10 11:50:21;;;;;;;10.02;3.10;;;;;;;;;;5168197;28;20147;-71
2022/10/10 11:53:20;;;;;;;8.10;3.20;;;;;;;22.56;49.85;99200.34;5180847;28;20092;-71
2022/10/10 11:56:30;;;;;;;12.07;3.03;;;;;;;22.70;50.46;99199.22;5165799;28;20125;-71
2022/10/10 11:59:32;;;;;;;10.10;3.05;;;;;;;22.93;51.03;99194.09;5181643;28;20058;-71
2022/10/10 12:02:29;;;;;;;7.20;3.28;;;;;;;22.95;51.47;99197.41;5180148;28;20428;-71
2022/10/10 12:05:23;;;;;;;9.50;3.40;;;;;;;22.52;50.83;99192.66;5181847;28;20050;-69
2022/10/10 12:08:22;;;;;;;9.27;3.50;;;;;;;22.65;51.61;99190.91;5180878;28;20151;-70
2022/10/10 12:11:20;;;;;;;13.35;3.20;;;;;;;22.36;50.69;99185.06;5182345;28;20050;-71
2022/10/10 12:14:15;;;;;;;9.98;2.97;;;;;;;22.51;50.17;99192.88;5182398;28;20049;-70
2022/10/10 12:17:37;;;;;;;8.50;2.80;;;;;;;22.81;50.81;99182.28;5164386;28;20142;-70
2022/10/10 12:20:29;;;;;;;7.57;3.28;;;;;;;22.83;50.70;99192.91;5181517;28;20069;-70
2022/10/10 12:23:28;;;;;;;12.50;3.67;;;;;;;22.80;50.58;99191.44;5177877;28;20046;-70
2022/10/10 12:26:21;;;;;;;10.73;2.80;;;;;;;22.79;49.69;99181.69;5179868;28;20053;-69
2022/10/10 12:29:11;;;;;;;6.95;2.70;;;;;;;22.88;49.67;99182.25;5180485;28;20188;-70
2022/10/10 12:32:13;;;;;;;8.70;2.72;;;;;;;22.83;51.23;99193.72;5164007;28;20152;-70
2022/10/10 12:35:31;;;;;;;18.70;3.40;;;;;;;22.59;50.29;99187.22;5184026;28;20073;-70
2022/10/10 12:38:23;;;;;;;10.20;3.30;;;;;;;22.51;51.67;99177.47;5183858;28;20427;-70
2022/10/10 12:41:14;;;;;;;10.80;3.17;;;;;;;22.68;50.83;99174.25;5186775;28;20056;-69
2022/10/10 12:44:14;;;;;;;6.03;2.83;;;;;;;22.70;50.25;99183.00;5183355;28;20054;-69
2022/10/10 12:47:13;;;;;;;9.52;2.78;;;;;;;22.71;49.54;99180.09;5182372;28;20245;-69
2022/10/10 12:50:17;;;;;;;6.82;2.97;;;;;;;22.83;49.03;99182.09;5170699;28;20056;-70
2022/10/10 12:53:10;;;;;;;10.18;3.20;;;;;;;22.67;49.76;99178.03;5168463;28;20504;-70
2022/10/10 12:56:02;;;;;;;9.18;3.80;;;;;;;22.92;49.27;99178.06;5184544;28;20041;-71
2022/10/10 12:58:52;;;;;;;7.28;3.50;;;;;;;22.90;50.48;99180.97;5183751;28;20527;-71
2022/10/10 13:01:49;;;;;;;6.18;2.70;;;;;;;22.82;49.34;99186.66;5182411;28;20120;-69
2022/10/10 13:04:42;;;;;;;17.02;3.00;;;;;;;22.99;49.43;99176.16;5182105;28;20099;-70
2022/10/10 13:07:32;;;;;;;6.47;2.90;;;;;;;22.97;48.79;99157.44;5192923;22;20550;-80
2022/10/10 13:10:25;;;;;;;8.30;2.80;;;;;;;22.68;50.52;99163.44;5173248;28;20109;-81
2022/10/10 13:13:18;;;;;;;8.95;2.97;;;;;;;22.38;50.38;99172.16;5186196;28;20057;-82
2022/10/10 13:16:13;;;;;;;9.60;2.80;;;;;;;22.42;50.33;99156.38;5188025;28;20072;-80
2022/10/10 13:19:03;;;;;;;19.77;3.03;;;;;;;22.69;49.65;99154.31;5160311;28;20057;-80
2022/10/10 13:21:54;;;;;;;9.18;2.90;;;;;;;22.73;49.81;99164.47;5159001;28;20054;-81
2022/10/10 13:24:46;;;;;;;6.53;2.58;;;;;;;22.78;48.46;99154.88;5188845;28;20440;-81
2022/10/10 13:27:36;;;;;;;12.65;3.33;;;;;;;22.56;50.74;99159.81;5189665;28;20432;-81
2022/10/10 13:30:26;;;;;;;10.38;3.70;;;;;;;22.43;50.55;99174.22;5189035;28;20057;-80
2022/10/10 13:33:20;;;;;;;11.07;2.97;;;;;;;22.27;50.29;99172.84;5160465;28;20058;-81
2022/10/10 13:36:19;;;;;;;;;;;;;;;22.66;47.81;99169.09;5176238;28;20126;-81